createdAt,value
2019-03-20T00:00:25.602Z,4.77
2019-03-20T00:02:56.031Z,4.57
2019-03-20T00:05:27.007Z,4.90
2019-03-20T00:07:57.310Z,4.57
2019-03-20T00:10:27.905Z,5.03
2019-03-20T00:12:58.230Z,4.70
2019-03-20T00:15:28.955Z,4.57
2019-03-20T00:17:59.520Z,5.27
2019-03-20T00:20:30.107Z,4.50
2019-03-20T00:23:00.348Z,4.40
2019-03-20T00:25:30.710Z,4.40
2019-03-20T00:28:01.013Z,4.10
2019-03-20T00:30:31.200Z,4.17
2019-03-20T00:33:01.483Z,3.90
2019-03-20T00:35:31.756Z,3.93
2019-03-20T00:38:02.456Z,3.80
2019-03-20T00:40:33.360Z,3.83
2019-03-20T00:43:03.613Z,3.58
2019-03-20T00:45:34.939Z,3.27
2019-03-20T00:48:05.554Z,3.60
2019-03-20T00:50:35.795Z,3.20
2019-03-20T00:53:06.085Z,3.50
2019-03-20T00:55:36.310Z,3.70
2019-03-20T00:58:06.586Z,4.33
2019-03-20T01:00:36.860Z,3.30
2019-03-20T01:03:07.128Z,4.07
2019-03-20T01:05:37.676Z,3.47
2019-03-20T01:08:07.882Z,3.53
2019-03-20T01:10:38.055Z,3.83
2019-03-20T01:13:08.329Z,4.00
2019-03-20T01:15:38.641Z,3.97
2019-03-20T01:18:09.504Z,3.70
2019-03-20T01:20:39.999Z,4.17
2019-03-20T01:23:10.243Z,4.50
2019-03-20T01:25:40.509Z,4.37
2019-03-20T01:28:10.787Z,4.03
2019-03-20T01:30:41.069Z,3.80
2019-03-20T01:33:12.217Z,4.10
2019-03-20T01:35:42.675Z,3.77
2019-03-20T01:38:12.909Z,4.03
2019-03-20T01:40:43.107Z,3.83
2019-03-20T01:43:13.776Z,4.30
2019-03-20T01:45:44.304Z,4.30
2019-03-20T01:48:14.612Z,3.90
2019-03-20T01:50:44.889Z,4.10
2019-03-20T01:53:15.482Z,3.53
2019-03-20T01:55:47.345Z,4.30
2019-03-20T01:58:18.199Z,4.30
2019-03-20T02:00:48.725Z,4.30
2019-03-20T02:03:19.011Z,4.00
2019-03-20T02:05:49.296Z,4.17
2019-03-20T02:08:19.783Z,4.13
2019-03-20T02:10:50.729Z,4.70
2019-03-20T02:13:21.091Z,4.10
2019-03-20T02:15:51.350Z,3.67
2019-03-20T02:18:22.032Z,4.40
2019-03-20T02:20:53.190Z,4.37
2019-03-20T02:23:23.390Z,3.97
2019-03-20T02:25:53.665Z,4.15
2019-03-20T02:28:25.025Z,4.47
2019-03-20T02:30:55.328Z,3.80
2019-03-20T02:33:25.578Z,4.07
2019-03-20T02:35:55.855Z,4.00
2019-03-20T02:38:26.851Z,4.00
2019-03-20T02:40:58.009Z,3.93
2019-03-20T02:43:28.327Z,3.90
2019-03-20T02:45:59.968Z,3.70
2019-03-20T02:48:30.224Z,3.63
2019-03-20T02:51:00.745Z,4.43
2019-03-20T02:53:32.497Z,3.93
2019-03-20T02:56:02.759Z,3.73
2019-03-20T02:58:33.659Z,3.73
2019-03-20T03:01:04.595Z,3.97
2019-03-20T03:03:34.933Z,3.87
2019-03-20T03:06:06.980Z,3.60
2019-03-20T03:08:37.199Z,4.00
2019-03-20T03:11:07.741Z,3.90
2019-03-20T03:13:37.953Z,3.93
2019-03-20T03:19:36.605Z,3.93
2019-03-20T03:22:07.199Z,3.60
2019-03-20T03:24:38.153Z,3.90
2019-03-20T03:27:08.400Z,3.60
2019-03-20T03:29:38.601Z,3.90
2019-03-20T03:32:09.526Z,5.00
2019-03-20T03:34:40.082Z,4.17
2019-03-20T03:37:10.311Z,3.83
2019-03-20T03:39:40.567Z,3.97
2019-03-20T03:42:10.760Z,4.10
2019-03-20T03:44:41.417Z,3.73
2019-03-20T03:47:12.081Z,4.33
2019-03-20T03:49:42.379Z,4.03
2019-03-20T03:52:13.254Z,4.20
2019-03-20T03:54:44.299Z,4.13
2019-03-20T03:57:14.689Z,4.17
2019-03-20T03:59:45.857Z,4.00
2019-03-20T04:02:16.810Z,4.30
2019-03-20T04:04:47.319Z,4.27
2019-03-20T04:07:17.597Z,3.70
2019-03-20T04:09:47.874Z,4.10
2019-03-20T04:12:18.168Z,4.00
2019-03-20T04:14:48.726Z,4.13
2019-03-20T04:17:29.002Z,3.93
2019-03-20T04:19:59.507Z,4.27
2019-03-20T04:22:30.465Z,3.90
2019-03-20T04:25:01.089Z,3.97
2019-03-20T04:27:31.355Z,3.90
2019-03-20T04:30:01.622Z,3.90
2019-03-20T04:32:32.334Z,4.33
2019-03-20T04:35:02.580Z,4.50
2019-03-20T04:37:32.856Z,3.50
2019-03-20T04:40:03.733Z,4.07
2019-03-20T04:42:34.391Z,4.17
2019-03-20T04:45:05.368Z,4.10
2019-03-20T04:47:35.587Z,4.73
2019-03-20T04:50:07.221Z,4.40
2019-03-20T04:52:37.493Z,3.83
2019-03-20T04:55:07.758Z,3.60
2019-03-20T04:57:38.322Z,4.40
2019-03-20T05:00:12.464Z,3.93
2019-03-20T05:02:42.762Z,4.20
2019-03-20T05:05:13.470Z,4.40
2019-03-20T05:07:43.724Z,4.05
2019-03-20T05:10:15.294Z,4.27
2019-03-20T05:12:45.862Z,4.37
2019-03-20T05:15:16.513Z,4.20
2019-03-20T05:17:46.780Z,4.25
2019-03-20T05:20:17.114Z,4.60
2019-03-20T05:22:47.405Z,4.40
2019-03-20T05:25:18.781Z,5.13
2019-03-20T05:27:48.974Z,4.90
2019-03-20T05:30:19.679Z,4.27
2019-03-20T05:32:50.057Z,4.63
2019-03-20T05:35:20.341Z,4.77
2019-03-20T05:37:51.020Z,4.37
2019-03-20T05:40:21.314Z,5.10
2019-03-20T05:42:51.541Z,4.83
2019-03-20T05:45:23.263Z,4.87
2019-03-20T05:47:54.097Z,5.43
2019-03-20T05:50:24.682Z,5.00
2019-03-20T05:52:54.994Z,5.10
2019-03-20T05:55:25.829Z,4.33
2019-03-20T05:57:57.608Z,4.37
2019-03-20T06:00:31.044Z,4.30
2019-03-20T06:03:01.677Z,4.43
2019-03-20T06:05:32.269Z,4.40
2019-03-20T06:08:02.470Z,4.10
2019-03-20T06:10:33.046Z,5.30
2019-03-20T06:13:03.460Z,6.03
2019-03-20T06:15:34.032Z,4.60
2019-03-20T06:18:04.299Z,5.33
2019-03-20T06:20:35.005Z,5.70
2019-03-20T06:23:05.606Z,5.13
2019-03-20T06:25:36.098Z,4.93
2019-03-20T06:28:06.712Z,5.57
2019-03-20T06:30:37.442Z,4.60
2019-03-20T06:33:07.857Z,6.27
2019-03-20T06:35:38.164Z,5.93
2019-03-20T06:38:08.753Z,5.57
2019-03-20T06:40:39.281Z,6.20
2019-03-20T06:43:09.627Z,6.53
2019-03-20T06:45:40.230Z,6.47
2019-03-20T06:48:10.793Z,6.20
2019-03-20T06:50:41.053Z,6.07
2019-03-20T06:53:11.334Z,6.00
2019-03-20T06:55:41.600Z,5.43
2019-03-20T06:58:12.166Z,5.67
2019-03-20T07:01:13.438Z,6.17
2019-03-20T07:04:03.522Z,6.20
2019-03-20T07:07:03.478Z,5.90
2019-03-20T07:09:39.618Z,6.63
2019-03-20T07:12:10.184Z,5.00
2019-03-20T07:14:40.742Z,5.33
2019-03-20T07:17:11.620Z,5.67
2019-03-20T07:19:41.911Z,5.43
2019-03-20T07:22:12.469Z,5.43
2019-03-20T07:24:42.789Z,5.80
2019-03-20T07:27:13.072Z,5.85
2019-03-20T07:29:43.344Z,5.57
2019-03-20T07:32:13.666Z,5.20
2019-03-20T07:34:43.863Z,5.83
2019-03-20T07:37:14.831Z,5.13
2019-03-20T07:39:45.105Z,5.20
2019-03-20T07:42:16.756Z,5.33
2019-03-20T07:44:46.989Z,5.87
2019-03-20T07:47:17.473Z,5.30
2019-03-20T07:49:47.821Z,5.03
2019-03-20T07:52:18.876Z,4.83
2019-03-20T07:54:49.051Z,5.37
2019-03-20T07:57:19.564Z,5.03
2019-03-20T07:59:50.417Z,5.10
2019-03-20T08:02:21.033Z,4.70
2019-03-20T08:04:52.263Z,4.73
2019-03-20T08:07:22.580Z,5.47
2019-03-20T08:09:54.070Z,4.50
2019-03-20T08:12:27.877Z,4.73
2019-03-20T08:14:58.570Z,5.03
2019-03-20T08:17:28.803Z,4.77
2019-03-20T08:19:59.024Z,5.03
2019-03-20T08:22:29.995Z,4.43
2019-03-20T08:25:00.483Z,4.33
2019-03-20T08:27:31.899Z,5.23
2019-03-20T08:30:03.080Z,4.70
2019-03-20T08:32:34.492Z,4.80
2019-03-20T08:35:06.632Z,4.47
2019-03-20T08:37:37.197Z,4.80
2019-03-20T08:40:08.399Z,5.17
2019-03-20T08:45:26.543Z,4.83
2019-03-20T08:47:57.020Z,4.60
2019-03-20T08:50:27.307Z,4.53
2019-03-20T08:52:57.687Z,4.33
2019-03-20T08:55:28.494Z,4.93
2019-03-20T08:57:58.811Z,5.27
2019-03-20T09:00:29.683Z,5.07
2019-03-20T09:03:00.036Z,5.03
2019-03-20T09:05:30.384Z,4.80
2019-03-20T09:08:01.020Z,4.00
2019-03-20T09:10:31.543Z,4.57
2019-03-20T09:13:02.347Z,4.93
2019-03-20T09:15:33.026Z,4.70
2019-03-20T09:18:03.311Z,4.67
2019-03-20T09:20:33.843Z,4.00
2019-03-20T09:23:04.315Z,4.10
2019-03-20T09:25:34.527Z,4.10
2019-03-20T09:28:04.815Z,4.30
2019-03-20T09:30:35.127Z,3.70
2019-03-20T09:33:05.791Z,4.00
2019-03-20T09:35:35.965Z,3.77
2019-03-20T09:38:06.231Z,3.43
2019-03-20T09:40:36.785Z,3.70
2019-03-20T09:43:07.145Z,3.50
2019-03-20T09:45:37.415Z,3.60
2019-03-20T09:48:07.963Z,3.33
2019-03-20T09:50:38.698Z,3.10
2019-03-20T09:53:08.956Z,3.20
2019-03-20T09:55:39.240Z,2.87
2019-03-20T09:58:11.712Z,2.90
2019-03-20T10:00:42.355Z,2.65
2019-03-20T10:03:12.997Z,3.15
2019-03-20T10:05:43.323Z,2.92
2019-03-20T10:08:13.568Z,2.50
2019-03-20T10:10:43.849Z,2.95
2019-03-20T10:13:14.532Z,2.52
2019-03-20T10:15:45.017Z,3.30
2019-03-20T10:18:15.243Z,2.62
2019-03-20T10:23:34.530Z,2.70
2019-03-20T10:26:05.062Z,3.25
2019-03-20T10:28:35.391Z,2.80
2019-03-20T10:31:05.756Z,2.95
2019-03-20T10:33:36.361Z,2.58
2019-03-20T10:36:07.099Z,2.55
2019-03-20T10:38:37.441Z,2.80
2019-03-20T10:41:07.891Z,2.90
2019-03-20T10:43:38.130Z,3.10
2019-03-20T10:46:08.714Z,2.55
2019-03-20T10:48:39.097Z,2.37
2019-03-20T10:51:09.377Z,2.98
2019-03-20T10:53:40.683Z,3.20
2019-03-20T10:56:11.050Z,3.17
2019-03-20T10:58:41.306Z,2.55
2019-03-20T11:01:11.594Z,2.98
2019-03-20T11:03:42.200Z,2.58
2019-03-20T11:06:12.636Z,2.77
2019-03-20T11:08:43.271Z,2.72
2019-03-20T11:11:13.619Z,2.37
2019-03-20T11:13:44.328Z,2.40
2019-03-20T11:16:14.660Z,2.47
2019-03-20T11:18:48.299Z,1.90
2019-03-20T11:21:17.909Z,2.70
2019-03-20T11:23:48.135Z,2.95
2019-03-20T11:26:19.436Z,2.40
2019-03-20T11:28:49.709Z,2.22
2019-03-20T11:31:20.291Z,2.37
2019-03-20T11:33:50.834Z,2.35
2019-03-20T11:36:22.171Z,2.77
2019-03-20T11:38:52.802Z,3.37
2019-03-20T11:41:23.839Z,2.45
2019-03-20T11:43:54.116Z,2.67
2019-03-20T11:46:24.355Z,2.40
2019-03-20T11:48:54.667Z,2.40
2019-03-20T11:51:25.143Z,2.35
2019-03-20T11:53:56.158Z,2.80
2019-03-20T11:56:26.535Z,2.25
2019-03-20T11:58:57.046Z,2.17
2019-03-20T12:01:27.387Z,2.08
2019-03-20T12:03:57.994Z,2.70
2019-03-20T12:06:28.934Z,2.20
2019-03-20T12:08:59.565Z,2.10
2019-03-20T12:11:30.606Z,2.62
2019-03-20T12:14:01.317Z,2.20
2019-03-20T12:16:31.588Z,1.87
2019-03-20T12:19:02.486Z,2.15
2019-03-20T12:21:33.543Z,2.00
2019-03-20T12:24:04.159Z,2.60
2019-03-20T12:26:34.811Z,2.12
2019-03-20T12:29:05.110Z,2.35
2019-03-20T12:31:35.799Z,2.80
2019-03-20T12:34:06.377Z,2.00
2019-03-20T12:36:36.765Z,1.90
2019-03-20T12:39:09.340Z,2.08
2019-03-20T12:41:39.641Z,1.87
2019-03-20T12:44:10.304Z,1.94
2019-03-20T12:46:41.711Z,2.50
2019-03-20T12:49:12.622Z,2.07
2019-03-20T12:51:42.867Z,2.67
2019-03-20T12:54:13.502Z,1.92
2019-03-20T12:56:43.879Z,1.90
2019-03-20T12:59:14.676Z,2.60
2019-03-20T13:01:45.292Z,2.40
2019-03-20T13:04:15.555Z,2.98
2019-03-20T13:06:45.863Z,2.67
2019-03-20T13:09:16.468Z,2.30
2019-03-20T13:11:47.105Z,2.27
2019-03-20T13:14:17.415Z,2.37
2019-03-20T13:16:47.757Z,2.58
2019-03-20T13:19:18.384Z,2.33
2019-03-20T13:21:49.123Z,2.40
2019-03-20T13:24:19.851Z,2.75
2019-03-20T13:26:50.486Z,2.60
2019-03-20T13:29:20.719Z,2.58
2019-03-20T13:31:51.367Z,1.95
2019-03-20T13:34:21.628Z,2.05
2019-03-20T13:36:51.915Z,2.17
2019-03-20T13:39:24.290Z,2.27
2019-03-20T13:41:54.591Z,1.92
2019-03-20T13:44:25.215Z,1.95
2019-03-20T13:46:55.546Z,2.35
2019-03-20T13:49:25.754Z,2.40
2019-03-20T13:51:56.101Z,2.10
2019-03-20T13:54:26.615Z,2.13
2019-03-20T13:56:57.109Z,2.10
2019-03-20T13:59:27.780Z,1.90
2019-03-20T14:01:58.513Z,2.08
2019-03-20T14:04:28.846Z,1.85
2019-03-20T14:06:59.158Z,1.77
2019-03-20T14:09:29.808Z,2.42
2019-03-20T14:12:00.198Z,3.00
2019-03-20T14:14:30.836Z,2.58
2019-03-20T14:17:01.170Z,1.87
2019-03-20T14:19:31.815Z,2.55
2019-03-20T14:22:02.442Z,2.00
2019-03-20T14:24:33.114Z,2.35
2019-03-20T14:27:03.390Z,2.08
2019-03-20T14:29:34.070Z,2.20
2019-03-20T14:32:04.394Z,1.62
2019-03-20T14:34:34.615Z,2.10
2019-03-20T14:37:04.896Z,1.87
2019-03-20T14:39:35.105Z,1.85
2019-03-20T14:42:05.658Z,1.85
2019-03-20T14:44:36.287Z,1.65
2019-03-20T14:47:06.619Z,1.50
2019-03-20T14:49:37.650Z,1.75
2019-03-20T14:52:09.026Z,1.95
2019-03-20T14:54:39.284Z,1.62
2019-03-20T14:57:09.686Z,1.67
2019-03-20T14:59:40.586Z,1.67
2019-03-20T15:02:11.629Z,1.50
2019-03-20T15:04:41.897Z,1.90
2019-03-20T15:07:12.179Z,1.50
2019-03-20T15:09:42.451Z,1.80
2019-03-20T15:12:13.337Z,1.20
2019-03-20T15:14:43.970Z,1.42
2019-03-20T15:17:14.701Z,1.85
2019-03-20T15:19:45.355Z,2.10
2019-03-20T15:22:15.656Z,1.50
2019-03-20T15:24:46.190Z,1.35
2019-03-20T15:27:16.696Z,1.82
2019-03-20T15:29:47.010Z,1.50
2019-03-20T15:32:17.252Z,2.05
2019-03-20T15:34:47.910Z,1.27
2019-03-20T15:37:18.156Z,1.50
2019-03-20T15:39:48.755Z,1.60
2019-03-20T15:42:19.811Z,1.60
2019-03-20T15:44:50.429Z,1.60
2019-03-20T15:47:20.741Z,1.85
2019-03-20T15:49:51.691Z,0.90
2019-03-20T15:52:22.020Z,1.37
2019-03-20T15:54:52.649Z,1.50
2019-03-20T15:57:23.686Z,1.20
2019-03-20T15:59:54.937Z,1.27
2019-03-20T16:02:25.177Z,1.40
2019-03-20T16:04:55.421Z,1.70
2019-03-20T16:07:25.661Z,1.63
2019-03-20T16:09:55.998Z,1.30
2019-03-20T16:12:26.251Z,1.10
2019-03-20T16:14:56.549Z,1.25
2019-03-20T16:17:26.798Z,1.30
2019-03-20T16:19:57.751Z,1.20
2019-03-20T16:22:28.371Z,1.40
2019-03-20T16:24:59.006Z,1.25
2019-03-20T16:27:29.411Z,1.40
2019-03-20T16:30:00.066Z,1.07
2019-03-20T16:32:30.302Z,1.10
2019-03-20T16:35:00.606Z,1.30
2019-03-20T16:37:30.956Z,1.55
2019-03-20T16:40:01.566Z,1.00
2019-03-20T16:42:31.938Z,1.22
2019-03-20T16:45:02.261Z,1.30
2019-03-20T16:47:32.654Z,1.00
2019-03-20T16:50:03.594Z,1.30
2019-03-20T16:52:34.518Z,0.90
2019-03-20T16:55:05.886Z,1.20
2019-03-20T16:57:36.790Z,1.00
2019-03-20T17:03:08.710Z,1.52
2019-03-20T17:05:39.324Z,1.95
2019-03-20T17:08:09.953Z,1.55
2019-03-20T17:10:40.591Z,1.65
2019-03-20T17:13:10.934Z,1.17
2019-03-20T17:15:41.875Z,1.07
2019-03-20T17:18:12.520Z,1.10
2019-03-20T17:20:44.756Z,1.47
2019-03-20T17:23:15.118Z,1.17
2019-03-20T17:25:45.395Z,1.20
2019-03-20T17:28:16.011Z,1.30
2019-03-20T17:30:46.317Z,1.30
2019-03-20T17:33:16.887Z,1.42
2019-03-20T17:35:47.517Z,1.30
2019-03-20T17:38:18.158Z,1.45
2019-03-20T17:40:48.783Z,1.10
2019-03-20T17:43:20.064Z,1.30
2019-03-20T17:45:50.297Z,1.40
2019-03-20T17:48:21.756Z,1.42
2019-03-20T17:50:52.081Z,18.17
2019-03-20T17:53:22.439Z,9.43
2019-03-20T17:55:53.011Z,5.23
2019-03-20T17:58:23.352Z,7.70
2019-03-20T18:00:54.455Z,2.33
2019-03-20T18:03:25.097Z,2.23
2019-03-20T18:05:55.406Z,2.17
2019-03-20T18:08:25.743Z,1.47
2019-03-20T18:10:56.479Z,2.00
2019-03-20T18:13:26.774Z,1.97
2019-03-20T18:15:58.058Z,1.50
2019-03-20T18:18:29.393Z,1.80
2019-03-20T18:21:00.114Z,1.53
2019-03-20T18:23:30.819Z,1.77
2019-03-20T18:26:01.103Z,2.00
2019-03-20T18:28:32.795Z,1.93
2019-03-20T18:31:03.052Z,5.50
2019-03-20T18:33:33.441Z,2.23
2019-03-20T18:36:04.025Z,1.70
2019-03-20T18:38:34.358Z,2.00
2019-03-20T18:41:04.991Z,2.10
2019-03-20T18:43:35.786Z,1.73
2019-03-20T18:46:06.139Z,2.00
2019-03-20T18:48:36.401Z,2.50
2019-03-20T18:51:06.671Z,1.83
2019-03-20T18:53:39.030Z,2.00
2019-03-20T18:56:09.659Z,1.60
2019-03-20T18:58:40.127Z,2.17
2019-03-20T19:01:10.687Z,2.37
2019-03-20T19:03:43.541Z,2.10
2019-03-20T19:06:17.822Z,2.10
2019-03-20T19:08:48.457Z,2.07
2019-03-20T19:11:19.092Z,2.30
2019-03-20T19:13:49.722Z,2.20
2019-03-20T19:16:21.609Z,2.20
2019-03-20T19:18:51.916Z,1.60
2019-03-20T19:21:22.541Z,2.00
2019-03-20T19:23:52.818Z,2.00
2019-03-20T19:26:23.419Z,2.10
2019-03-20T19:28:53.991Z,2.03
2019-03-20T19:31:24.950Z,1.70
2019-03-20T19:33:55.263Z,2.20
2019-03-20T19:36:25.819Z,1.93
2019-03-20T19:38:58.109Z,1.80
2019-03-20T19:41:28.439Z,2.00
2019-03-20T19:43:59.035Z,2.02
2019-03-20T19:46:29.563Z,1.97
2019-03-20T19:48:59.831Z,2.00
2019-03-20T19:51:30.150Z,2.13
2019-03-20T19:54:00.813Z,2.27
2019-03-20T19:56:31.381Z,2.43
2019-03-20T19:59:01.752Z,2.47
2019-03-20T20:01:32.374Z,2.00
2019-03-20T20:04:03.237Z,1.90
2019-03-20T20:06:39.243Z,2.20
2019-03-20T20:09:09.577Z,2.37
2019-03-20T20:12:33.344Z,2.27
2019-03-20T20:15:03.060Z,1.70
2019-03-20T20:17:33.538Z,2.13
2019-03-20T20:20:03.820Z,2.10
2019-03-20T20:22:34.443Z,1.93
2019-03-20T20:25:05.003Z,2.00
2019-03-20T20:27:35.795Z,2.30
2019-03-20T20:30:07.371Z,2.30
2019-03-20T20:32:38.290Z,2.17
2019-03-20T20:35:10.467Z,1.93
2019-03-20T20:37:41.102Z,2.00
2019-03-20T20:40:13.623Z,2.13
2019-03-20T20:42:44.615Z,2.50
2019-03-20T20:45:15.852Z,2.57
2019-03-20T20:47:46.518Z,2.20
2019-03-20T20:50:17.699Z,2.40
2019-03-20T20:52:48.459Z,2.07
2019-03-20T20:55:19.157Z,2.37
2019-03-20T20:57:49.732Z,3.97
2019-03-20T21:00:21.408Z,4.60
2019-03-20T21:02:51.713Z,3.30
2019-03-20T21:05:22.859Z,2.83
2019-03-20T21:07:53.263Z,2.37
2019-03-20T21:10:23.505Z,2.20
2019-03-20T21:12:56.599Z,2.70
2019-03-20T21:15:44.047Z,2.50
2019-03-20T21:19:02.733Z,2.10
2019-03-20T21:22:01.101Z,2.23
2019-03-20T21:24:32.203Z,2.37
2019-03-20T21:27:43.558Z,2.07
2019-03-20T21:30:52.013Z,2.13
2019-03-20T21:33:50.961Z,2.67
2019-03-20T21:37:20.428Z,2.10
2019-03-20T21:39:51.728Z,2.40
2019-03-20T21:43:06.981Z,2.50
2019-03-20T21:46:21.769Z,2.33
2019-03-20T21:48:52.525Z,2.57
2019-03-20T21:51:24.170Z,2.53
2019-03-20T21:54:41.757Z,2.53
2019-03-20T21:57:55.473Z,2.57
2019-03-20T22:01:01.629Z,2.70
2019-03-20T22:03:33.409Z,2.63
2019-03-20T22:06:40.576Z,2.80
2019-03-20T22:09:27.938Z,2.93
2019-03-20T22:12:33.975Z,2.63
2019-03-20T22:15:10.038Z,2.50
2019-03-20T22:18:11.379Z,2.70
2019-03-20T22:21:02.240Z,2.60
2019-03-20T22:24:26.276Z,2.27
2019-03-20T22:27:40.650Z,3.20
2019-03-20T22:30:12.803Z,3.03
2019-03-20T22:33:20.200Z,3.00
2019-03-20T22:36:20.291Z,2.93
2019-03-20T22:39:53.217Z,2.50
2019-03-20T22:42:32.409Z,2.73
2019-03-20T22:45:39.573Z,2.33
2019-03-20T22:49:05.875Z,2.30
2019-03-20T22:52:03.033Z,2.00
2019-03-20T22:54:59.386Z,2.20
2019-03-20T22:57:46.085Z,2.07
2019-03-20T23:00:17.211Z,2.37
2019-03-20T23:02:58.237Z,2.60
2019-03-20T23:05:29.050Z,2.50
2019-03-20T23:07:59.783Z,2.40
2019-03-20T23:10:30.551Z,2.83
2019-03-20T23:13:01.678Z,2.40
2019-03-20T23:15:32.451Z,2.70
2019-03-20T23:18:03.281Z,2.50
2019-03-20T23:20:34.470Z,2.90
2019-03-20T23:23:06.487Z,2.50
2019-03-20T23:25:37.396Z,2.60
2019-03-20T23:28:08.259Z,2.30
2019-03-20T23:30:39.030Z,3.30
2019-03-20T23:33:09.943Z,2.83
2019-03-20T23:35:41.013Z,2.60
2019-03-20T23:38:12.154Z,2.63
2019-03-20T23:40:43.255Z,2.60
2019-03-20T23:43:14.017Z,2.70
2019-03-20T23:45:44.869Z,2.63
2019-03-20T23:48:22.559Z,2.47
2019-03-20T23:50:56.655Z,2.80
2019-03-20T23:53:27.627Z,2.50
2019-03-20T23:55:58.877Z,2.63
2019-03-20T23:58:30.019Z,2.63
